createdAt,value
2019-05-22T00:00:47.659Z,93.90
2019-05-22T00:01:47.642Z,93.79
2019-05-22T00:02:47.660Z,93.79
2019-05-22T00:03:47.625Z,93.79
2019-05-22T00:04:47.617Z,93.49
2019-05-22T00:05:47.612Z,93.70
2019-05-22T00:06:47.643Z,93.70
2019-05-22T00:07:47.591Z,93.90
2019-05-22T00:08:47.587Z,94.10
2019-05-22T00:09:47.561Z,93.90
2019-05-22T00:10:47.546Z,93.79
2019-05-22T00:13:09.830Z,93.84
2019-05-22T00:14:09.809Z,92.93
2019-05-22T00:15:18.052Z,93.54
2019-05-22T00:16:09.785Z,92.83
2019-05-22T00:17:09.771Z,93.03
2019-05-22T00:18:09.810Z,93.03
2019-05-22T00:19:09.756Z,93.03
2019-05-22T00:20:09.740Z,93.03
2019-05-22T00:21:09.764Z,92.63
2019-05-22T00:22:09.718Z,92.83
2019-05-22T00:23:09.726Z,92.32
2019-05-22T00:24:09.697Z,92.83
2019-05-22T00:25:09.724Z,92.87
2019-05-22T00:26:09.668Z,92.52
2019-05-22T00:27:09.669Z,92.12
2019-05-22T00:28:09.673Z,92.77
2019-05-22T00:29:09.650Z,92.36
2019-05-22T00:30:09.645Z,92.72
2019-05-22T00:31:09.638Z,92.63
2019-05-22T00:32:09.611Z,92.57
2019-05-22T00:33:09.651Z,92.22
2019-05-22T00:34:09.583Z,92.26
2019-05-22T00:35:09.586Z,92.06
2019-05-22T00:36:09.568Z,91.75
2019-05-22T00:37:09.551Z,91.61
2019-05-22T00:38:09.975Z,91.51
2019-05-22T00:39:09.544Z,91.86
2019-05-22T00:40:09.525Z,91.86
2019-05-22T00:41:09.510Z,91.86
2019-05-22T00:42:09.505Z,91.55
2019-05-22T00:43:14.046Z,92.06
2019-05-22T00:44:10.502Z,91.75
2019-05-22T00:45:09.466Z,92.00
2019-05-22T00:46:09.480Z,91.75
2019-05-22T00:47:09.442Z,91.86
2019-05-22T00:48:09.436Z,91.86
2019-05-22T00:49:09.443Z,92.06
2019-05-22T00:50:09.414Z,92.36
2019-05-22T00:51:09.408Z,92.51
2019-05-22T00:52:09.390Z,92.26
2019-05-22T00:53:09.378Z,92.97
2019-05-22T00:54:09.389Z,92.91
2019-05-22T00:55:09.371Z,92.61
2019-05-22T00:56:09.342Z,92.51
2019-05-22T00:57:09.336Z,93.02
2019-05-22T00:58:09.323Z,92.71
2019-05-22T00:59:09.335Z,93.02
2019-05-22T01:00:09.306Z,92.41
2019-05-22T01:01:09.285Z,93.22
2019-05-22T01:02:09.278Z,92.82
2019-05-22T01:03:09.278Z,92.91
2019-05-22T01:04:09.275Z,93.12
2019-05-22T01:05:09.251Z,93.32
2019-05-22T01:06:09.246Z,93.12
2019-05-22T01:07:09.223Z,93.32
2019-05-22T01:08:09.215Z,93.12
2019-05-22T01:09:09.227Z,92.97
2019-05-22T01:10:09.199Z,92.77
2019-05-22T01:11:09.184Z,92.82
2019-05-22T01:12:09.170Z,92.82
2019-05-22T01:13:09.156Z,92.21
2019-05-22T01:14:09.181Z,92.10
2019-05-22T01:15:09.130Z,91.90
2019-05-22T01:16:09.130Z,91.80
2019-05-22T01:17:09.113Z,91.80
2019-05-22T01:18:09.121Z,91.90
2019-05-22T01:19:09.097Z,91.50
2019-05-22T01:20:09.105Z,91.90
2019-05-22T01:21:09.073Z,91.70
2019-05-22T01:22:09.082Z,91.60
2019-05-22T01:23:09.114Z,91.74
2019-05-22T01:24:09.037Z,91.54
2019-05-22T01:25:09.039Z,92.10
2019-05-22T01:26:09.015Z,91.94
2019-05-22T01:27:09.005Z,92.05
2019-05-22T01:28:09.021Z,91.85
2019-05-22T01:29:08.990Z,92.14
2019-05-22T01:30:09.002Z,91.64
2019-05-22T01:31:08.995Z,91.74
2019-05-22T01:32:08.966Z,91.94
2019-05-22T01:33:08.951Z,91.74
2019-05-22T01:34:08.929Z,92.25
2019-05-22T01:35:08.950Z,91.64
2019-05-22T01:36:08.903Z,91.64
2019-05-22T01:37:08.907Z,91.94
2019-05-22T01:38:08.883Z,92.35
2019-05-22T01:39:08.878Z,91.94
2019-05-22T01:40:08.896Z,91.74
2019-05-22T01:41:08.863Z,92.25
2019-05-22T01:42:08.843Z,92.45
2019-05-22T01:43:08.844Z,92.14
2019-05-22T01:44:08.827Z,92.25
2019-05-22T01:45:08.826Z,92.45
2019-05-22T01:46:08.813Z,92.45
2019-05-22T01:47:08.791Z,92.35
2019-05-22T01:48:08.777Z,92.14
2019-05-22T01:49:08.769Z,92.45
2019-05-22T01:50:08.781Z,92.65
2019-05-22T01:51:08.771Z,92.25
2019-05-22T01:52:08.737Z,92.25
2019-05-22T01:53:08.723Z,92.10
2019-05-22T01:54:08.721Z,92.25
2019-05-22T01:55:08.706Z,91.94
2019-05-22T01:56:08.748Z,92.14
2019-05-22T01:57:08.677Z,91.85
2019-05-22T01:58:08.662Z,92.14
2019-05-22T01:59:08.654Z,92.05
2019-05-22T02:00:08.652Z,91.85
2019-05-22T02:01:08.662Z,92.14
2019-05-22T02:02:08.630Z,91.85
2019-05-22T02:03:08.612Z,91.74
2019-05-22T02:04:08.607Z,91.64
2019-05-22T02:05:08.589Z,91.24
2019-05-22T02:06:08.600Z,90.93
2019-05-22T02:07:08.572Z,90.93
2019-05-22T02:08:08.568Z,91.03
2019-05-22T02:09:08.555Z,91.24
2019-05-22T02:10:08.548Z,91.28
2019-05-22T02:11:08.696Z,90.97
2019-05-22T02:12:08.520Z,91.48
2019-05-22T02:13:08.512Z,91.08
2019-05-22T02:14:08.494Z,91.58
2019-05-22T02:15:08.482Z,91.38
2019-05-22T02:16:08.497Z,91.68
2019-05-22T02:17:08.467Z,91.48
2019-05-22T02:18:08.456Z,91.17
2019-05-22T02:19:08.441Z,91.08
2019-05-22T02:20:09.079Z,90.88
2019-05-22T02:21:08.453Z,90.47
2019-05-22T02:22:08.424Z,91.28
2019-05-22T02:23:08.397Z,91.08
2019-05-22T02:24:08.392Z,91.13
2019-05-22T02:25:08.380Z,90.77
2019-05-22T02:26:08.363Z,91.08
2019-05-22T02:27:08.397Z,90.88
2019-05-22T02:28:08.344Z,90.73
2019-05-22T02:29:08.330Z,90.53
2019-05-22T02:30:08.320Z,90.73
2019-05-22T02:31:08.306Z,90.26
2019-05-22T02:32:08.313Z,90.62
2019-05-22T02:33:08.291Z,90.97
2019-05-22T02:34:08.295Z,90.83
2019-05-22T02:35:08.267Z,90.53
2019-05-22T02:36:08.261Z,90.42
2019-05-22T02:37:08.278Z,90.73
2019-05-22T02:38:08.229Z,90.67
2019-05-22T02:39:08.232Z,90.88
2019-05-22T02:40:08.213Z,90.97
2019-05-22T02:41:08.211Z,90.97
2019-05-22T02:42:08.221Z,90.47
2019-05-22T02:43:08.178Z,89.96
2019-05-22T02:44:08.163Z,90.47
2019-05-22T02:45:08.159Z,90.88
2019-05-22T02:46:08.147Z,90.57
2019-05-22T02:47:19.267Z,90.57
2019-05-22T02:48:09.120Z,90.67
2019-05-22T02:49:08.110Z,90.16
2019-05-22T02:50:08.112Z,90.88
2019-05-22T02:51:08.087Z,91.08
2019-05-22T02:52:08.124Z,90.57
2019-05-22T02:53:08.071Z,90.97
2019-05-22T02:54:08.063Z,91.08
2019-05-22T02:55:08.052Z,91.38
2019-05-22T02:56:08.036Z,90.97
2019-05-22T02:57:08.030Z,90.47
2019-05-22T02:58:08.037Z,91.38
2019-05-22T02:59:08.015Z,89.96
2019-05-22T03:00:07.994Z,90.26
2019-05-22T03:01:07.980Z,89.86
2019-05-22T03:02:07.974Z,90.47
2019-05-22T03:03:07.999Z,90.77
2019-05-22T03:04:07.963Z,90.67
2019-05-22T03:05:07.933Z,90.57
2019-05-22T03:06:07.926Z,91.38
2019-05-22T03:07:07.915Z,90.47
2019-05-22T03:08:07.916Z,91.08
2019-05-22T03:09:07.896Z,90.77
2019-05-22T03:10:07.906Z,91.17
2019-05-22T03:11:07.894Z,91.38
2019-05-22T03:12:07.855Z,91.17
2019-05-22T03:13:07.899Z,91.17
2019-05-22T03:14:07.850Z,91.17
2019-05-22T03:15:07.828Z,91.28
2019-05-22T03:16:07.828Z,91.17
2019-05-22T03:17:07.818Z,91.17
2019-05-22T03:18:07.814Z,91.52
2019-05-22T03:19:09.246Z,90.92
2019-05-22T03:20:07.771Z,91.63
2019-05-22T03:21:07.775Z,92.03
2019-05-22T03:22:07.770Z,91.63
2019-05-22T03:23:07.775Z,91.73
2019-05-22T03:24:07.760Z,91.63
2019-05-22T03:25:07.725Z,91.83
2019-05-22T03:26:07.724Z,92.03
2019-05-22T03:27:07.700Z,91.93
2019-05-22T03:28:07.691Z,91.83
2019-05-22T03:29:07.692Z,91.93
2019-05-22T03:30:07.677Z,91.73
2019-05-22T03:31:07.659Z,91.93
2019-05-22T03:32:07.644Z,91.77
2019-05-22T03:33:07.653Z,91.42
2019-05-22T03:34:07.649Z,91.87
2019-05-22T03:35:07.616Z,91.16
2019-05-22T03:36:07.595Z,91.32
2019-05-22T03:37:07.601Z,91.67
2019-05-22T03:38:07.596Z,90.81
2019-05-22T03:39:07.593Z,91.26
2019-05-22T03:40:07.556Z,90.96
2019-05-22T03:41:07.547Z,91.32
2019-05-22T03:42:07.532Z,91.12
2019-05-22T03:43:07.525Z,91.16
2019-05-22T03:44:07.527Z,91.77
2019-05-22T03:45:07.499Z,91.42
2019-05-22T03:46:15.801Z,91.73
2019-05-22T03:47:07.481Z,92.03
2019-05-22T03:48:07.474Z,92.24
2019-05-22T03:49:07.483Z,92.18
2019-05-22T03:50:07.450Z,92.38
2019-05-22T03:51:07.435Z,92.28
2019-05-22T03:52:07.422Z,93.09
2019-05-22T03:53:07.413Z,93.19
2019-05-22T03:54:07.425Z,93.09
2019-05-22T03:55:07.392Z,92.99
2019-05-22T03:56:07.385Z,93.09
2019-05-22T03:57:07.374Z,93.29
2019-05-22T03:58:07.359Z,93.09
2019-05-22T03:59:07.346Z,93.40
2019-05-22T04:00:07.353Z,93.09
2019-05-22T04:01:07.327Z,93.95
2019-05-22T04:02:07.341Z,93.84
2019-05-22T04:03:07.299Z,93.33
2019-05-22T04:04:07.322Z,93.44
2019-05-22T04:05:07.301Z,93.95
2019-05-22T04:06:07.267Z,94.45
2019-05-22T04:07:07.261Z,93.89
2019-05-22T04:08:07.255Z,94.20
2019-05-22T04:09:07.233Z,94.24
2019-05-22T04:10:07.243Z,94.60
2019-05-22T04:11:07.209Z,94.85
2019-05-22T04:12:07.214Z,94.50
2019-05-22T04:13:07.187Z,94.80
2019-05-22T04:14:07.191Z,95.01
2019-05-22T04:15:07.201Z,95.05
2019-05-22T04:16:07.160Z,95.05
2019-05-22T04:17:07.150Z,94.85
2019-05-22T04:18:07.150Z,94.95
2019-05-22T04:19:07.130Z,94.54
2019-05-22T04:20:07.135Z,95.15
2019-05-22T04:21:07.106Z,94.64
2019-05-22T04:22:07.101Z,95.25
2019-05-22T04:23:07.097Z,94.74
2019-05-22T04:24:07.076Z,94.54
2019-05-22T04:25:07.194Z,95.05
2019-05-22T04:26:07.048Z,95.05
2019-05-22T04:27:07.043Z,95.15
2019-05-22T04:28:07.028Z,95.05
2019-05-22T04:29:07.018Z,95.36
2019-05-22T04:30:07.031Z,95.25
2019-05-22T04:31:06.997Z,95.86
2019-05-22T04:32:06.984Z,95.66
2019-05-22T04:33:06.980Z,94.95
2019-05-22T04:34:06.968Z,94.95
2019-05-22T04:35:06.959Z,95.76
2019-05-22T04:36:10.061Z,95.86
2019-05-22T04:37:06.939Z,95.76
2019-05-22T04:38:06.924Z,94.85
2019-05-22T04:39:06.909Z,94.74
2019-05-22T04:40:06.910Z,93.93
2019-05-22T04:41:06.912Z,94.38
2019-05-22T04:42:06.877Z,94.04
2019-05-22T04:43:06.866Z,94.34
2019-05-22T04:44:06.857Z,94.24
2019-05-22T04:45:06.845Z,94.13
2019-05-22T04:46:06.870Z,93.93
2019-05-22T04:47:06.830Z,93.73
2019-05-22T04:48:06.809Z,93.43
2019-05-22T04:49:06.815Z,93.93
2019-05-22T04:50:08.176Z,93.26
2019-05-22T04:51:06.795Z,93.47
2019-05-22T04:52:06.775Z,93.52
2019-05-22T04:53:06.758Z,93.22
2019-05-22T04:54:06.753Z,93.32
2019-05-22T04:55:06.742Z,93.22
2019-05-22T04:56:06.732Z,93.02
2019-05-22T04:57:06.716Z,93.43
2019-05-22T04:58:06.721Z,93.52
2019-05-22T04:59:06.710Z,93.43
2019-05-22T05:00:06.682Z,93.32
2019-05-22T05:01:06.692Z,93.93
2019-05-22T05:02:06.667Z,93.98
2019-05-22T05:03:06.651Z,94.18
2019-05-22T05:04:06.683Z,93.57
2019-05-22T05:05:06.631Z,93.47
2019-05-22T05:06:07.134Z,94.18
2019-05-22T05:07:06.609Z,92.96
2019-05-22T05:08:06.597Z,93.41
2019-05-22T05:09:06.581Z,93.47
2019-05-22T05:10:06.579Z,93.37
2019-05-22T05:11:06.590Z,93.51
2019-05-22T05:12:06.548Z,93.06
2019-05-22T05:13:06.534Z,93.06
2019-05-22T05:14:06.548Z,93.37
2019-05-22T05:15:06.532Z,93.06
2019-05-22T05:16:06.542Z,92.76
2019-05-22T05:17:06.497Z,92.96
2019-05-22T05:18:06.479Z,92.86
2019-05-22T05:19:06.480Z,92.25
2019-05-22T05:20:21.378Z,92.45
2019-05-22T05:21:07.486Z,92.14
2019-05-22T05:22:06.436Z,91.74
2019-05-22T05:23:06.433Z,92.25
2019-05-22T05:24:06.430Z,92.14
2019-05-22T05:25:06.414Z,92.04
2019-05-22T05:26:06.422Z,91.94
2019-05-22T05:27:06.394Z,91.13
2019-05-22T05:28:06.379Z,90.92
2019-05-22T05:29:06.369Z,92.09
2019-05-22T05:30:06.351Z,92.09
2019-05-22T05:31:06.365Z,92.09
2019-05-22T05:32:06.338Z,92.49
2019-05-22T05:33:06.326Z,92.60
2019-05-22T05:34:06.318Z,92.64
2019-05-22T05:35:06.304Z,92.94
2019-05-22T05:36:06.321Z,92.84
2019-05-22T05:37:06.274Z,93.55
2019-05-22T05:38:06.267Z,93.05
2019-05-22T05:39:06.258Z,92.74
2019-05-22T05:40:06.256Z,93.31
2019-05-22T05:41:06.241Z,93.15
2019-05-22T05:42:06.249Z,93.31
2019-05-22T05:43:06.212Z,93.15
2019-05-22T05:44:06.204Z,93.10
2019-05-22T05:45:06.190Z,93.41
2019-05-22T05:46:06.204Z,92.94
2019-05-22T05:47:06.189Z,93.10
2019-05-22T05:48:06.156Z,93.31
2019-05-22T05:49:06.171Z,92.60
2019-05-22T05:50:06.146Z,92.49
2019-05-22T05:51:06.122Z,93.01
2019-05-22T05:52:06.133Z,92.40
2019-05-22T05:53:06.167Z,92.64
2019-05-22T05:54:06.090Z,92.80
2019-05-22T05:55:06.086Z,92.49
2019-05-22T05:56:06.070Z,92.84
2019-05-22T05:57:06.105Z,93.10
2019-05-22T05:58:06.047Z,93.51
2019-05-22T05:59:06.046Z,93.10
2019-05-22T06:00:06.036Z,93.31
2019-05-22T06:01:06.021Z,93.01
2019-05-22T06:02:06.026Z,92.80
2019-05-22T06:03:06.024Z,92.49
2019-05-22T06:04:06.009Z,92.49
2019-05-22T06:05:05.968Z,92.19
2019-05-22T06:06:05.964Z,92.49
2019-05-22T06:07:05.955Z,92.09
2019-05-22T06:08:05.962Z,92.49
2019-05-22T06:09:05.929Z,92.33
2019-05-22T06:10:05.913Z,92.40
2019-05-22T06:11:05.904Z,92.60
2019-05-22T06:12:06.101Z,93.01
2019-05-22T06:13:05.908Z,93.41
2019-05-22T06:14:05.873Z,93.10
2019-05-22T06:15:05.868Z,93.10
2019-05-22T06:16:05.861Z,93.31
2019-05-22T06:17:05.837Z,93.01
2019-05-22T06:18:05.825Z,93.35
2019-05-22T06:19:05.853Z,93.01
2019-05-22T06:20:05.819Z,92.94
2019-05-22T06:21:05.813Z,93.45
2019-05-22T06:22:05.797Z,92.80
2019-05-22T06:23:05.787Z,93.25
2019-05-22T06:24:05.787Z,93.01
2019-05-22T06:25:06.085Z,92.33
2019-05-22T06:26:05.759Z,92.84
2019-05-22T06:27:05.730Z,92.94
2019-05-22T06:28:05.745Z,93.55
2019-05-22T06:29:05.749Z,93.50
2019-05-22T06:30:05.703Z,92.89
2019-05-22T06:31:05.691Z,93.05
2019-05-22T06:32:05.680Z,93.40
2019-05-22T06:33:05.681Z,93.60
2019-05-22T06:34:05.655Z,93.90
2019-05-22T06:35:05.660Z,93.60
2019-05-22T06:36:05.632Z,93.80
2019-05-22T06:37:05.620Z,94.21
2019-05-22T06:38:05.609Z,93.70
2019-05-22T06:39:05.614Z,94.42
2019-05-22T06:40:05.661Z,93.70
2019-05-22T06:41:05.591Z,93.60
2019-05-22T06:42:05.599Z,93.50
2019-05-22T06:43:05.560Z,93.29
2019-05-22T06:44:05.564Z,93.40
2019-05-22T06:45:05.810Z,92.89
2019-05-22T06:46:05.533Z,92.68
2019-05-22T06:47:05.551Z,93.19
2019-05-22T06:48:05.511Z,92.79
2019-05-22T06:49:05.499Z,93.40
2019-05-22T06:50:05.489Z,93.19
2019-05-22T06:51:18.625Z,93.29
2019-05-22T06:52:06.461Z,93.40
2019-05-22T06:53:09.816Z,92.89
2019-05-22T06:54:05.481Z,93.40
2019-05-22T06:55:05.430Z,92.64
2019-05-22T06:56:05.458Z,92.13
2019-05-22T06:57:05.407Z,93.09
2019-05-22T06:58:05.397Z,92.84
2019-05-22T06:59:05.380Z,92.89
2019-05-22T07:00:14.865Z,93.15
2019-05-22T07:01:06.381Z,93.60
2019-05-22T07:02:05.362Z,93.19
2019-05-22T07:03:05.344Z,92.54
2019-05-22T07:04:05.339Z,92.38
2019-05-22T07:05:05.318Z,92.48
2019-05-22T07:06:05.326Z,92.84
2019-05-22T07:07:05.313Z,92.13
2019-05-22T07:08:05.317Z,92.23
2019-05-22T07:09:05.287Z,92.33
2019-05-22T07:10:05.265Z,91.72
2019-05-22T07:11:05.250Z,92.33
2019-05-22T07:12:05.261Z,92.03
2019-05-22T07:13:05.277Z,91.83
2019-05-22T07:14:05.218Z,92.23
2019-05-22T07:15:05.229Z,91.93
2019-05-22T07:16:05.216Z,92.23
2019-05-22T07:17:05.183Z,92.54
2019-05-22T07:18:05.198Z,92.23
2019-05-22T07:19:05.186Z,92.33
2019-05-22T07:20:05.161Z,91.93
2019-05-22T07:21:05.156Z,91.27
2019-05-22T07:22:05.137Z,91.48
2019-05-22T07:23:05.150Z,91.99
2019-05-22T07:24:05.123Z,91.48
2019-05-22T07:25:05.111Z,90.81
2019-05-22T07:26:05.103Z,90.97
2019-05-22T07:27:05.092Z,90.91
2019-05-22T07:28:05.128Z,91.52
2019-05-22T07:29:05.298Z,91.01
2019-05-22T07:30:05.066Z,90.50
2019-05-22T07:31:05.042Z,91.22
2019-05-22T07:32:05.024Z,91.22
2019-05-22T07:33:05.022Z,91.52
2019-05-22T07:34:05.064Z,91.22
2019-05-22T07:35:04.992Z,91.42
2019-05-22T07:36:10.124Z,91.46
2019-05-22T07:37:05.993Z,91.31
2019-05-22T07:38:05.023Z,91.52
2019-05-22T07:39:04.970Z,91.22
2019-05-22T07:40:04.934Z,91.62
2019-05-22T07:41:04.927Z,91.42
2019-05-22T07:42:04.917Z,90.91
2019-05-22T07:43:04.938Z,90.91
2019-05-22T07:44:04.902Z,91.22
2019-05-22T07:45:04.887Z,91.11
2019-05-22T07:46:04.939Z,91.16
2019-05-22T07:47:04.865Z,91.36
2019-05-22T07:48:05.132Z,91.01
2019-05-22T07:49:04.862Z,91.11
2019-05-22T07:50:04.861Z,91.42
2019-05-22T07:51:04.819Z,91.22
2019-05-22T07:52:04.816Z,90.91
2019-05-22T07:53:04.800Z,91.68
2019-05-22T07:54:04.853Z,90.60
2019-05-22T07:55:04.782Z,90.20
2019-05-22T07:56:04.834Z,89.99
2019-05-22T07:57:04.777Z,90.40
2019-05-22T07:58:04.743Z,90.20
2019-05-22T07:59:05.107Z,89.38
2019-05-22T08:00:04.732Z,89.48
2019-05-22T08:01:04.723Z,89.99
2019-05-22T08:02:04.720Z,90.40
2019-05-22T08:03:04.697Z,90.20
2019-05-22T08:04:04.704Z,90.50
2019-05-22T08:05:06.719Z,91.22
2019-05-22T08:06:13.559Z,90.86
2019-05-22T08:07:04.644Z,91.17
2019-05-22T08:08:04.647Z,90.97
2019-05-22T08:09:05.127Z,91.22
2019-05-22T08:10:04.621Z,90.81
2019-05-22T08:11:04.612Z,91.01
2019-05-22T08:12:04.609Z,90.81
2019-05-22T08:13:04.599Z,91.22
2019-05-22T08:14:04.581Z,90.81
2019-05-22T08:15:04.562Z,90.91
2019-05-22T08:16:04.676Z,90.81
2019-05-22T08:17:04.561Z,91.22
2019-05-22T08:18:04.539Z,91.22
2019-05-22T08:19:04.549Z,91.11
2019-05-22T08:20:04.509Z,91.01
2019-05-22T08:21:04.675Z,91.52
2019-05-22T08:22:07.363Z,91.07
2019-05-22T08:23:04.495Z,91.48
2019-05-22T08:24:04.538Z,91.17
2019-05-22T08:25:04.451Z,90.36
2019-05-22T08:26:04.435Z,90.91
2019-05-22T08:27:04.427Z,90.86
2019-05-22T08:28:04.421Z,90.36
2019-05-22T08:29:04.442Z,90.40
2019-05-22T08:30:04.394Z,90.55
2019-05-22T08:31:04.381Z,89.99
2019-05-22T08:32:04.373Z,90.20
2019-05-22T08:33:04.383Z,89.48
2019-05-22T08:34:04.438Z,89.38
2019-05-22T08:35:04.350Z,89.63
2019-05-22T08:36:04.324Z,89.59
2019-05-22T08:37:04.314Z,89.89
2019-05-22T08:38:04.303Z,89.89
2019-05-22T08:39:04.351Z,89.38
2019-05-22T08:40:04.303Z,89.28
2019-05-22T08:41:04.272Z,89.28
2019-05-22T08:42:04.261Z,89.28
2019-05-22T08:43:04.251Z,89.28
2019-05-22T08:44:16.242Z,89.48
2019-05-22T08:45:05.239Z,88.67
2019-05-22T08:46:04.235Z,88.16
2019-05-22T08:47:04.209Z,88.16
2019-05-22T08:48:04.194Z,87.85
2019-05-22T08:49:04.239Z,88.26
2019-05-22T08:50:04.185Z,89.07
2019-05-22T08:51:04.220Z,89.48
2019-05-22T08:52:04.186Z,89.48
2019-05-22T08:53:04.148Z,89.59
2019-05-22T08:54:12.540Z,90.70
2019-05-22T08:55:04.125Z,91.01
2019-05-22T08:56:04.113Z,91.52
2019-05-22T08:57:13.151Z,91.62
2019-05-22T08:58:04.141Z,91.11
2019-05-22T08:59:18.431Z,91.56
2019-05-22T09:00:05.068Z,91.01
2019-05-22T09:01:04.056Z,90.81
2019-05-22T09:02:04.061Z,90.81
2019-05-22T09:03:04.377Z,91.31
2019-05-22T09:04:04.048Z,91.11
2019-05-22T09:05:04.030Z,91.22
2019-05-22T09:06:04.005Z,89.89
2019-05-22T09:07:03.997Z,89.89
2019-05-22T09:08:03.980Z,89.99
2019-05-22T09:09:03.995Z,89.89
2019-05-22T09:10:03.989Z,89.99
2019-05-22T09:11:03.945Z,90.09
2019-05-22T09:12:03.969Z,89.99
2019-05-22T09:13:03.927Z,89.89
2019-05-22T09:14:03.916Z,89.38
2019-05-22T09:15:03.925Z,89.28
2019-05-22T09:16:03.901Z,89.07
2019-05-22T09:17:03.879Z,89.38
2019-05-22T09:18:03.869Z,89.38
2019-05-22T09:19:03.863Z,89.48
2019-05-22T09:20:03.906Z,89.59
2019-05-22T09:21:03.842Z,89.48
2019-05-22T09:22:03.836Z,89.48
2019-05-22T09:23:03.813Z,89.28
2019-05-22T09:24:03.803Z,89.34
2019-05-22T09:25:04.003Z,89.03
2019-05-22T09:26:03.791Z,88.98
2019-05-22T09:27:03.781Z,89.34
2019-05-22T09:28:03.760Z,89.48
2019-05-22T09:29:03.752Z,89.24
2019-05-22T09:30:03.759Z,89.44
2019-05-22T09:31:03.761Z,87.92
2019-05-22T09:32:03.880Z,89.03
2019-05-22T09:33:03.708Z,88.42
2019-05-22T09:34:03.703Z,88.32
2019-05-22T09:35:03.701Z,89.14
2019-05-22T09:36:03.843Z,88.93
2019-05-22T09:37:03.667Z,88.83
2019-05-22T09:38:03.666Z,89.03
2019-05-22T09:39:03.658Z,88.32
2019-05-22T09:40:03.661Z,88.32
2019-05-22T09:41:03.621Z,88.32
2019-05-22T09:42:03.616Z,88.79
2019-05-22T09:43:03.684Z,89.09
2019-05-22T09:44:03.594Z,87.87
2019-05-22T09:45:03.599Z,88.28
2019-05-22T09:46:03.578Z,87.98
2019-05-22T09:47:03.576Z,87.47
2019-05-22T09:48:03.541Z,87.06
2019-05-22T09:49:03.543Z,87.37
2019-05-22T09:50:03.526Z,87.67
2019-05-22T09:51:03.528Z,87.47
2019-05-22T09:52:03.537Z,87.47
2019-05-22T09:53:03.488Z,87.77
2019-05-22T09:54:03.484Z,87.77
2019-05-22T09:55:03.501Z,87.67
2019-05-22T09:56:03.463Z,87.98
2019-05-22T09:57:03.456Z,88.02
2019-05-22T09:58:03.440Z,88.28
2019-05-22T09:59:03.420Z,88.22
2019-05-22T10:00:03.419Z,89.14
2019-05-22T10:01:03.418Z,89.14
2019-05-22T10:02:03.417Z,88.69
2019-05-22T10:03:03.523Z,88.89
2019-05-22T10:04:03.365Z,88.48
2019-05-22T10:05:03.364Z,87.77
2019-05-22T10:06:03.463Z,87.98
2019-05-22T10:07:03.365Z,88.08
2019-05-22T10:08:03.341Z,87.77
2019-05-22T10:09:03.307Z,87.26
2019-05-22T10:10:03.309Z,87.77
2019-05-22T10:11:03.301Z,87.77
2019-05-22T10:12:03.307Z,87.26
2019-05-22T10:13:03.292Z,87.47
2019-05-22T10:14:03.276Z,87.47
2019-05-22T10:15:04.134Z,87.26
2019-05-22T10:16:03.268Z,87.37
2019-05-22T10:17:03.237Z,87.67
2019-05-22T10:18:03.277Z,87.87
2019-05-22T10:19:03.224Z,88.08
2019-05-22T10:20:03.211Z,87.57
2019-05-22T10:21:03.217Z,88.89
2019-05-22T10:22:03.170Z,89.09
2019-05-22T10:24:04.156Z,87.98
2019-05-22T10:25:15.056Z,88.04
2019-05-22T10:26:04.136Z,87.93
2019-05-22T10:27:03.112Z,87.84
2019-05-22T10:28:03.126Z,87.53
2019-05-22T10:29:03.112Z,87.89
2019-05-22T10:30:03.106Z,86.82
2019-05-22T10:31:03.283Z,85.90
2019-05-22T10:32:03.066Z,87.53
2019-05-22T10:33:03.123Z,87.47
2019-05-22T10:34:03.055Z,87.53
2019-05-22T10:35:03.050Z,86.76
2019-05-22T10:36:03.034Z,87.57
2019-05-22T10:37:03.027Z,86.96
2019-05-22T10:38:02.999Z,87.06
2019-05-22T10:39:03.102Z,86.76
2019-05-22T10:40:02.981Z,86.76
2019-05-22T10:41:02.968Z,87.47
2019-05-22T10:42:02.973Z,86.04
2019-05-22T10:43:02.965Z,86.15
2019-05-22T10:44:02.965Z,86.25
2019-05-22T10:45:02.922Z,86.31
2019-05-22T10:46:02.947Z,86.04
2019-05-22T10:47:02.894Z,86.10
2019-05-22T10:48:02.907Z,85.94
2019-05-22T10:49:02.901Z,85.74
2019-05-22T10:50:02.864Z,86.15
2019-05-22T10:51:02.875Z,86.10
2019-05-22T10:52:02.917Z,85.80
2019-05-22T10:53:02.841Z,85.74
2019-05-22T10:54:02.879Z,85.94
2019-05-22T10:55:02.834Z,86.04
2019-05-22T10:56:02.966Z,87.26
2019-05-22T10:57:02.792Z,87.23
2019-05-22T10:58:02.797Z,87.47
2019-05-22T10:59:02.767Z,87.98
2019-05-22T11:00:02.781Z,89.09
2019-05-22T11:01:02.787Z,88.02
2019-05-22T11:02:02.786Z,88.93
2019-05-22T11:03:02.735Z,88.79
2019-05-22T11:04:02.737Z,89.30
2019-05-22T11:05:02.724Z,88.59
2019-05-22T11:06:07.094Z,89.30
2019-05-22T11:07:03.703Z,89.00
2019-05-22T11:08:02.674Z,89.09
2019-05-22T11:09:02.666Z,88.08
2019-05-22T11:10:02.661Z,87.87
2019-05-22T11:11:02.637Z,87.77
2019-05-22T11:12:02.637Z,87.77
2019-05-22T11:13:02.661Z,87.57
2019-05-22T11:14:02.614Z,87.26
2019-05-22T11:15:02.607Z,87.57
2019-05-22T11:16:02.606Z,87.26
2019-05-22T11:17:02.573Z,87.57
2019-05-22T11:18:02.560Z,87.61
2019-05-22T11:19:02.552Z,87.26
2019-05-22T11:20:02.559Z,87.16
2019-05-22T11:21:02.529Z,87.16
2019-05-22T11:22:02.528Z,87.77
2019-05-22T11:23:02.700Z,86.86
2019-05-22T11:24:02.493Z,87.37
2019-05-22T11:25:02.498Z,87.23
2019-05-22T11:26:02.473Z,87.02
2019-05-22T11:27:02.469Z,87.47
2019-05-22T11:28:02.457Z,87.12
2019-05-22T11:29:02.456Z,87.53
2019-05-22T11:30:02.462Z,87.02
2019-05-22T11:31:02.442Z,87.37
2019-05-22T11:32:02.427Z,87.87
2019-05-22T11:33:02.392Z,87.98
2019-05-22T11:34:02.397Z,88.69
2019-05-22T11:35:02.394Z,89.50
2019-05-22T11:36:02.359Z,89.24
2019-05-22T11:37:02.369Z,89.40
2019-05-22T11:38:02.341Z,89.20
2019-05-22T11:39:02.335Z,88.59
2019-05-22T11:40:02.357Z,89.30
2019-05-22T11:41:02.304Z,89.20
2019-05-22T11:42:02.314Z,89.30
2019-05-22T11:43:02.412Z,89.34
2019-05-22T11:44:02.279Z,89.50
2019-05-22T11:45:02.272Z,89.30
2019-05-22T11:46:02.273Z,89.34
2019-05-22T11:47:02.272Z,89.14
2019-05-22T11:48:02.235Z,89.03
2019-05-22T11:49:02.212Z,88.73
2019-05-22T11:50:02.323Z,89.03
2019-05-22T11:51:02.210Z,89.44
2019-05-22T11:52:02.215Z,89.34
2019-05-22T11:53:02.180Z,89.54
2019-05-22T11:54:09.222Z,89.34
2019-05-22T11:55:03.160Z,89.24
2019-05-22T11:56:02.165Z,89.34
2019-05-22T11:57:02.140Z,89.24
2019-05-22T11:58:02.122Z,89.03
2019-05-22T11:59:02.177Z,87.81
2019-05-22T12:00:02.101Z,88.02
2019-05-22T12:01:02.144Z,88.02
2019-05-22T12:02:02.089Z,87.92
2019-05-22T12:03:02.071Z,87.75
2019-05-22T12:04:02.062Z,87.81
2019-05-22T12:05:02.047Z,87.30
2019-05-22T12:06:02.027Z,87.71
2019-05-22T12:07:02.056Z,87.92
2019-05-22T12:08:02.028Z,87.92
2019-05-22T12:09:01.996Z,88.32
2019-05-22T12:10:02.028Z,87.61
2019-05-22T12:11:02.019Z,87.30
2019-05-22T12:12:01.999Z,87.20
2019-05-22T12:13:01.963Z,87.20
2019-05-22T12:14:01.958Z,87.61
2019-05-22T12:15:01.948Z,87.20
2019-05-22T12:16:02.090Z,87.41
2019-05-22T12:17:01.927Z,87.06
2019-05-22T12:18:01.909Z,86.45
2019-05-22T12:19:01.895Z,86.35
2019-05-22T12:20:02.036Z,85.94
2019-05-22T12:21:01.896Z,86.04
2019-05-22T12:22:01.863Z,85.94
2019-05-22T12:23:01.877Z,86.04
2019-05-22T12:24:01.858Z,86.45
2019-05-22T12:25:01.829Z,86.35
2019-05-22T12:26:01.833Z,85.03
2019-05-22T12:27:01.832Z,85.03
2019-05-22T12:28:01.809Z,85.23
2019-05-22T12:29:01.777Z,84.92
2019-05-22T12:30:01.775Z,84.92
2019-05-22T12:31:01.775Z,85.03
2019-05-22T12:32:01.774Z,84.99
2019-05-22T12:33:01.747Z,85.03
2019-05-22T12:34:01.754Z,84.78
2019-05-22T12:35:01.787Z,84.62
2019-05-22T12:36:01.706Z,84.62
2019-05-22T12:37:01.817Z,84.92
2019-05-22T12:38:01.699Z,84.58
2019-05-22T12:39:01.673Z,84.58
2019-05-22T12:40:01.667Z,84.48
2019-05-22T12:41:01.647Z,84.07
2019-05-22T12:42:01.660Z,84.17
2019-05-22T12:43:01.639Z,84.07
2019-05-22T12:44:01.633Z,84.17
2019-05-22T12:45:01.779Z,84.28
2019-05-22T12:46:01.602Z,84.34
2019-05-22T12:47:01.604Z,84.44
2019-05-22T12:48:01.575Z,84.84
2019-05-22T12:49:01.566Z,84.88
2019-05-22T12:50:02.363Z,84.78
2019-05-22T12:51:01.552Z,85.19
2019-05-22T12:52:01.578Z,85.39
2019-05-22T12:53:01.517Z,85.03
2019-05-22T12:54:01.517Z,85.13
2019-05-22T12:55:01.504Z,86.45